TimeAKST,TemperatureF,Dew PointF,Humidity,Sea Level PressureIn,VisibilityMPH,Wind Direction,Wind SpeedMPH,Gust SpeedMPH,PrecipitationIn,Events,Conditions,WindDirDegrees,DateUTC
12:53 AM,-8.0,-13.0,79,30.09,9.0,NNE,5.8,-,0.00,,Overcast,20,2013-02-16 09:53:00
1:53 AM,-8.0,-13.0,79,30.10,8.0,Calm,Calm,-,0.01,Snow,Light Snow,0,2013-02-16 10:53:00
3:23 AM,-9.4,-14.8,77,30.12,4.0,Calm,Calm,-,0.00,Snow,Light Snow,0,2013-02-16 12:23:00
3:41 AM,-9.4,-14.8,77,30.12,9.0,Calm,Calm,-,0.00,,Overcast,0,2013-02-16 12:41:00
3:53 AM,-9.9,-14.1,82,30.12,10.0,Calm,Calm,-,0.00,,Mostly Cloudy,0,2013-02-16 12:53:00
4:53 AM,-11.9,-16.1,82,30.13,5.0,SW,4.6,-,0.00,Snow,Light Snow,220,2013-02-16 13:53:00
5:36 AM,-14.8,-18.4,84,30.13,7.0,SW,6.9,-,0.00,,Overcast,220,2013-02-16 14:36:00
5:53 AM,-15.0,-18.9,82,30.14,10.0,SSW,6.9,-,0.00,,Mostly Cloudy,210,2013-02-16 14:53:00
6:53 AM,-17.0,-18.9,91,30.14,10.0,WSW,6.9,-,N/A,,Clear,240,2013-02-16 15:53:00
7:53 AM,-15.0,-17.0,91,30.15,10.0,Calm,Calm,-,N/A,,Mostly Cloudy,0,2013-02-16 16:53:00
8:53 AM,-17.0,-20.0,86,30.15,8.0,WSW,4.6,-,0.01,,Mostly Cloudy,240,2013-02-16 17:53:00
9:53 AM,-18.0,-20.9,87,30.16,10.0,SW,4.6,-,0.01,,Partly Cloudy,220,2013-02-16 18:53:00
10:21 AM,-20.2,-23.8,83,30.17,1.2,SSW,3.5,-,N/A,,Partly Cloudy,210,2013-02-16 19:21:00
10:28 AM,-20.2,-23.8,83,30.17,10.0,SSW,3.5,-,N/A,,Partly Cloudy,200,2013-02-16 19:28:00
10:53 AM,-20.9,-23.1,90,30.17,10.0,SW,3.5,-,N/A,,Partly Cloudy,220,2013-02-16 19:53:00
11:53 AM,-18.0,-22.0,82,30.19,8.0,WSW,5.8,-,0.02,,Clear,250,2013-02-16 20:53:00
12:53 PM,-20.0,-24.0,82,30.19,9.0,WSW,3.5,-,N/A,Snow,Light Snow,250,2013-02-16 21:53:00
1:53 PM,-20.0,-25.1,78,30.20,8.0,WSW,3.5,-,N/A,Snow,Light Snow,240,2013-02-16 22:53:00
2:53 PM,-20.0,-26.0,74,30.20,9.0,SW,4.6,-,0.00,,Scattered Clouds,220,2013-02-16 23:53:00
3:53 PM,-18.9,-24.0,78,30.19,7.0,SSW,4.6,-,N/A,,Mostly Cloudy,210,2013-02-17 00:53:00
4:53 PM,-18.0,-23.1,78,30.20,9.0,SW,4.6,-,N/A,,Overcast,220,2013-02-17 01:53:00
5:53 PM,-16.1,-20.9,79,30.19,7.0,Calm,Calm,-,0.01,,Overcast,0,2013-02-17 02:53:00
6:53 PM,-17.0,-22.0,78,30.19,10.0,SSW,4.6,-,N/A,,Mostly Cloudy,200,2013-02-17 03:53:00
7:53 PM,-18.0,-23.1,78,30.19,10.0,SW,6.9,-,N/A,,Clear,230,2013-02-17 04:53:00
8:53 PM,-20.9,-24.0,86,30.19,10.0,WSW,6.9,-,N/A,,Clear,250,2013-02-17 05:53:00
9:53 PM,-23.1,-29.0,74,30.20,10.0,SW,4.6,-,N/A,,Clear,220,2013-02-17 06:53:00
10:53 PM,-25.1,-27.9,86,30.20,10.0,Calm,Calm,-,0.01,,Clear,0,2013-02-17 07:53:00
11:53 PM,-22.0,-25.1,86,30.21,10.0,Calm,Calm,-,0.01,,Clear,0,2013-02-17 08:53:00